Time,TemperatureF,DewpointF,PressureIn,WindDirection,WindDirectionDegrees,WindSpeedMPH,WindSpeedGustMPH,Humidity,HourlyPrecipIn,Conditions,Clouds,dailyrainin,SoftwareType,DateUTC
2013-07-07 00:08:00,73.0,67.0,29.97,SSW,212,5.0,7.0,81,0.00,,,0.00,weatherlink.com 1.10,2013-07-07 05:08:00,
2013-07-07 00:23:00,72.8,67.0,29.97,South,190,5.0,8.0,82,0.00,,,0.00,weatherlink.com 1.10,2013-07-07 05:23:00,
2013-07-07 00:38:00,72.9,68.0,29.97,SW,222,7.0,8.0,83,0.00,,,0.00,weatherlink.com 1.10,2013-07-07 05:38:00,
2013-07-07 00:53:00,72.8,68.0,29.97,South,171,4.0,9.0,84,0.00,,,0.00,weatherlink.com 1.10,2013-07-07 05:53:00,
2013-07-07 01:08:00,72.9,68.0,29.96,South,175,6.0,9.0,84,0.00,,,0.00,weatherlink.com 1.10,2013-07-07 06:08:00,
2013-07-07 01:23:00,73.0,68.0,29.96,South,182,2.0,8.0,84,0.00,,,0.00,weatherlink.com 1.10,2013-07-07 06:23:00,
2013-07-07 01:38:00,72.8,68.0,29.96,SSW,213,4.0,7.0,85,0.00,,,0.00,weatherlink.com 1.10,2013-07-07 06:38:00,
2013-07-07 01:53:00,72.5,68.0,29.96,SSW,198,3.0,7.0,85,0.00,,,0.00,weatherlink.com 1.10,2013-07-07 06:53:00,
2013-07-07 02:08:00,72.7,68.0,29.96,SW,225,5.0,6.0,85,0.00,,,0.00,weatherlink.com 1.10,2013-07-07 07:08:00,
2013-07-07 02:23:00,72.9,68.0,29.95,SW,231,1.0,6.0,84,0.00,,,0.00,weatherlink.com 1.10,2013-07-07 07:23:00,
2013-07-07 02:38:00,72.6,68.0,29.95,SW,221,4.0,8.0,85,0.00,,,0.00,weatherlink.com 1.10,2013-07-07 07:38:00,
2013-07-07 02:53:00,72.0,68.0,29.95,WSW,244,7.0,8.0,86,0.00,,,0.00,weatherlink.com 1.10,2013-07-07 07:53:00,
2013-07-07 03:08:00,71.9,68.0,29.95,SSW,198,4.0,7.0,87,0.00,,,0.00,weatherlink.com 1.10,2013-07-07 08:08:00,
2013-07-07 03:23:00,71.7,68.0,29.95,SW,229,4.0,11.0,87,0.00,,,0.00,weatherlink.com 1.10,2013-07-07 08:23:00,
2013-07-07 03:39:00,71.3,67.0,29.95,SW,233,5.0,5.0,87,0.00,,,0.00,weatherlink.com 1.10,2013-07-07 08:39:00,
2013-07-07 03:54:00,71.2,67.0,29.96,SSW,196,3.0,7.0,86,0.00,,,0.00,weatherlink.com 1.10,2013-07-07 08:54:00,
2013-07-07 04:09:00,71.2,67.0,29.96,SW,233,3.0,7.0,85,0.00,,,0.00,weatherlink.com 1.10,2013-07-07 09:09:00,
2013-07-07 04:24:00,71.3,66.0,29.95,SSW,204,2.0,7.0,84,0.00,,,0.00,weatherlink.com 1.10,2013-07-07 09:24:00,
2013-07-07 04:39:00,71.2,66.0,29.95,SSW,195,2.0,6.0,82,0.00,,,0.00,weatherlink.com 1.10,2013-07-07 09:39:00,
2013-07-07 04:54:00,71.1,65.0,29.96,SSW,207,2.0,5.0,82,0.00,,,0.00,weatherlink.com 1.10,2013-07-07 09:54:00,
2013-07-07 05:09:00,71.0,65.0,29.96,SSW,194,2.0,7.0,82,0.00,,,0.00,weatherlink.com 1.10,2013-07-07 10:09:00,
2013-07-07 05:24:00,70.9,65.0,29.96,SW,229,2.0,5.0,81,0.00,,,0.00,weatherlink.com 1.10,2013-07-07 10:24:00,
2013-07-07 05:39:00,70.9,65.0,29.96,SSW,213,4.0,6.0,81,0.00,,,0.00,weatherlink.com 1.10,2013-07-07 10:39:00,
2013-07-07 05:54:00,70.7,65.0,29.97,SW,231,3.0,6.0,81,0.00,,,0.00,weatherlink.com 1.10,2013-07-07 10:54:00,
2013-07-07 06:09:00,70.6,65.0,29.96,SSW,201,2.0,6.0,81,0.00,,,0.00,weatherlink.com 1.10,2013-07-07 11:09:00,
2013-07-07 06:24:00,70.7,64.0,29.96,SW,229,2.0,6.0,80,0.00,,,0.00,weatherlink.com 1.10,2013-07-07 11:24:00,
2013-07-07 06:39:00,70.6,64.0,29.98,SSW,198,5.0,8.0,80,0.00,,,0.00,weatherlink.com 1.10,2013-07-07 11:39:00,
2013-07-07 06:55:00,70.2,64.0,29.98,SSW,205,5.0,7.0,81,0.00,,,0.00,weatherlink.com 1.10,2013-07-07 11:55:00,
2013-07-07 07:10:00,69.7,64.0,29.98,SSW,210,5.0,10.0,83,0.00,,,0.00,weatherlink.com 1.10,2013-07-07 12:10:00,
2013-07-07 07:25:00,69.7,64.0,29.98,SSW,203,3.0,7.0,83,0.00,,,0.00,weatherlink.com 1.10,2013-07-07 12:25:00,
2013-07-07 07:40:00,71.0,65.0,29.98,SW,214,4.0,7.0,81,0.00,,,0.00,weatherlink.com 1.10,2013-07-07 12:40:00,
2013-07-07 07:55:00,72.5,65.0,29.98,SSW,207,3.0,7.0,78,0.00,,,0.00,weatherlink.com 1.10,2013-07-07 12:55:00,
2013-07-07 08:10:00,73.4,65.0,29.98,SW,235,7.0,9.0,76,0.00,,,0.00,weatherlink.com 1.10,2013-07-07 13:10:00,
2013-07-07 08:25:00,74.9,66.0,29.98,SW,216,6.0,10.0,74,0.00,,,0.00,weatherlink.com 1.10,2013-07-07 13:25:00,
2013-07-07 08:40:00,75.8,67.0,29.98,SW,232,3.0,8.0,73,0.00,,,0.00,weatherlink.com 1.10,2013-07-07 13:40:00,
2013-07-07 08:55:00,76.9,67.0,29.98,SW,228,3.0,7.0,71,0.00,,,0.00,weatherlink.com 1.10,2013-07-07 13:55:00,
2013-07-07 09:10:00,76.7,67.0,29.97,WSW,254,4.0,9.0,72,0.00,,,0.00,weatherlink.com 1.10,2013-07-07 14:10:00,
2013-07-07 09:25:00,77.8,68.0,29.97,WSW,246,4.0,7.0,71,0.00,,,0.00,weatherlink.com 1.10,2013-07-07 14:25:00,
2013-07-07 09:40:00,78.9,68.0,29.97,WSW,250,1.0,6.0,69,0.00,,,0.00,weatherlink.com 1.10,2013-07-07 14:40:00,
2013-07-07 09:55:00,79.8,68.0,29.97,SSW,194,5.0,8.0,68,0.00,,,0.00,weatherlink.com 1.10,2013-07-07 14:55:00,
2013-07-07 10:11:00,81.1,69.0,29.96,SW,221,2.0,6.0,67,0.00,,,0.00,weatherlink.com 1.10,2013-07-07 15:11:00,
2013-07-07 10:26:00,81.8,70.0,29.97,SW,222,2.0,7.0,67,0.00,,,0.00,weatherlink.com 1.10,2013-07-07 15:26:00,
2013-07-07 10:41:00,82.4,69.0,29.97,SSW,206,7.0,9.0,65,0.00,,,0.00,weatherlink.com 1.10,2013-07-07 15:41:00,
2013-07-07 10:56:00,83.3,70.0,29.97,SSW,204,4.0,7.0,64,0.00,,,0.00,weatherlink.com 1.10,2013-07-07 15:56:00,
2013-07-07 11:11:00,83.8,70.0,29.97,SW,215,3.0,9.0,63,0.00,,,0.00,weatherlink.com 1.10,2013-07-07 16:11:00,
2013-07-07 11:26:00,85.0,70.0,29.97,SSW,202,0.0,9.0,62,0.00,,,0.00,weatherlink.com 1.10,2013-07-07 16:26:00,
2013-07-07 11:41:00,85.2,70.0,29.97,SW,223,1.0,7.0,61,0.00,,,0.00,weatherlink.com 1.10,2013-07-07 16:41:00,
2013-07-07 11:56:00,86.1,71.0,29.96,SSW,203,6.0,9.0,60,0.00,,,0.00,weatherlink.com 1.10,2013-07-07 16:56:00,
2013-07-07 12:11:00,86.7,71.0,29.96,SW,221,2.0,7.0,60,0.00,,,0.00,weatherlink.com 1.10,2013-07-07 17:11:00,
2013-07-07 12:26:00,88.3,71.0,29.96,South,188,3.0,6.0,56,0.00,,,0.00,weatherlink.com 1.10,2013-07-07 17:26:00,
2013-07-07 12:41:00,88.4,71.0,29.96,SW,225,4.0,6.0,57,0.00,,,0.00,weatherlink.com 1.10,2013-07-07 17:41:00,
2013-07-07 12:56:00,88.3,70.0,29.96,SSW,212,1.0,8.0,55,0.00,,,0.00,weatherlink.com 1.10,2013-07-07 17:56:00,
2013-07-07 13:11:00,89.3,69.0,29.95,SSW,205,3.0,8.0,52,0.00,,,0.00,weatherlink.com 1.10,2013-07-07 18:11:00,
2013-07-07 13:26:00,89.5,68.0,29.95,SW,218,3.0,11.0,50,0.00,,,0.00,weatherlink.com 1.10,2013-07-07 18:26:00,
2013-07-07 13:42:00,90.2,68.0,29.95,SW,217,2.0,9.0,48,0.00,,,0.00,weatherlink.com 1.10,2013-07-07 18:42:00,
2013-07-07 13:57:00,90.3,69.0,29.95,SW,219,8.0,8.0,50,0.00,,,0.00,weatherlink.com 1.10,2013-07-07 18:57:00,
2013-07-07 14:12:00,90.3,67.0,29.95,West,267,2.0,11.0,46,0.00,,,0.00,weatherlink.com 1.10,2013-07-07 19:12:00,
2013-07-07 14:27:00,90.2,67.0,29.95,SW,225,7.0,11.0,46,0.00,,,0.00,weatherlink.com 1.10,2013-07-07 19:27:00,
2013-07-07 14:42:00,90.4,70.0,29.95,NW,304,6.0,10.0,52,0.00,,,0.00,weatherlink.com 1.10,2013-07-07 19:42:00,
2013-07-07 14:57:00,91.1,69.0,29.94,West,266,5.0,8.0,48,0.00,,,0.00,weatherlink.com 1.10,2013-07-07 19:57:00,
2013-07-07 15:12:00,90.2,69.0,29.94,SW,232,2.0,10.0,50,0.00,,,0.00,weatherlink.com 1.10,2013-07-07 20:12:00,
2013-07-07 15:27:00,90.6,70.0,29.94,South,188,6.0,9.0,51,0.00,,,0.00,weatherlink.com 1.10,2013-07-07 20:27:00,
2013-07-07 15:42:00,90.7,70.0,29.94,SW,225,4.0,11.0,51,0.00,,,0.00,weatherlink.com 1.10,2013-07-07 20:42:00,
2013-07-07 15:57:00,90.6,71.0,29.93,West,269,3.0,10.0,52,0.00,,,0.00,weatherlink.com 1.10,2013-07-07 20:57:00,
2013-07-07 16:12:00,90.6,71.0,29.93,SSW,211,7.0,12.0,52,0.00,,,0.00,weatherlink.com 1.10,2013-07-07 21:12:00,
2013-07-07 16:27:00,90.3,70.0,29.93,WSW,241,5.0,13.0,52,0.00,,,0.00,weatherlink.com 1.10,2013-07-07 21:27:00,
2013-07-07 16:42:00,90.1,71.0,29.93,SSW,209,2.0,9.0,53,0.00,,,0.00,weatherlink.com 1.10,2013-07-07 21:42:00,
2013-07-07 16:58:00,90.3,70.0,29.93,West,274,9.0,12.0,52,0.00,,,0.00,weatherlink.com 1.10,2013-07-07 21:58:00,
2013-07-07 17:13:00,90.8,71.0,29.92,WSW,257,5.0,9.0,53,0.00,,,0.00,weatherlink.com 1.10,2013-07-07 22:13:00,
2013-07-07 17:28:00,89.7,69.0,29.92,WSW,244,6.0,11.0,51,0.00,,,0.00,weatherlink.com 1.10,2013-07-07 22:28:00,
2013-07-07 17:43:00,89.5,71.0,29.92,West,265,5.0,10.0,54,0.00,,,0.00,weatherlink.com 1.10,2013-07-07 22:43:00,
2013-07-07 17:58:00,89.0,70.0,29.92,West,261,6.0,8.0,54,0.00,,,0.00,weatherlink.com 1.10,2013-07-07 22:58:00,
2013-07-07 18:13:00,88.8,71.0,29.92,WSW,238,6.0,9.0,56,0.00,,,0.00,weatherlink.com 1.10,2013-07-07 23:13:00,
2013-07-07 18:28:00,88.2,70.0,29.93,WSW,250,6.0,11.0,55,0.00,,,0.00,weatherlink.com 1.10,2013-07-07 23:28:00,
2013-07-07 18:43:00,87.6,68.0,29.93,West,271,3.0,9.0,52,0.00,,,0.00,weatherlink.com 1.10,2013-07-07 23:43:00,
2013-07-07 18:58:00,87.5,69.0,29.93,SSW,205,1.0,7.0,54,0.00,,,0.00,weatherlink.com 1.10,2013-07-07 23:58:00,
2013-07-07 19:13:00,87.4,70.0,29.93,SW,226,2.0,5.0,56,0.00,,,0.00,weatherlink.com 1.10,2013-07-08 00:13:00,
2013-07-07 19:28:00,87.0,71.0,29.92,SW,224,2.0,6.0,59,0.00,,,0.00,weatherlink.com 1.10,2013-07-08 00:28:00,
2013-07-07 19:43:00,86.0,71.0,29.93,WSW,246,4.0,5.0,62,0.00,,,0.00,weatherlink.com 1.10,2013-07-08 00:43:00,
2013-07-07 19:59:00,85.2,71.0,29.92,SSW,199,0.0,5.0,63,0.00,,,0.00,weatherlink.com 1.10,2013-07-08 00:59:00,
2013-07-07 20:14:00,84.5,72.0,29.92,SSW,199,2.0,5.0,66,0.00,,,0.00,weatherlink.com 1.10,2013-07-08 01:14:00,
2013-07-07 20:29:00,83.9,72.0,29.92,SW,232,5.0,5.0,67,0.00,,,0.00,weatherlink.com 1.10,2013-07-08 01:29:00,
2013-07-07 20:44:00,83.5,71.0,29.93,SSW,198,2.0,6.0,67,0.00,,,0.00,weatherlink.com 1.10,2013-07-08 01:44:00,
2013-07-07 20:59:00,82.8,72.0,29.93,SSW,211,3.0,6.0,69,0.00,,,0.00,weatherlink.com 1.10,2013-07-08 01:59:00,
2013-07-07 21:14:00,82.0,71.0,29.93,SSW,209,3.0,6.0,70,0.00,,,0.00,weatherlink.com 1.10,2013-07-08 02:14:00,
2013-07-07 21:29:00,81.5,71.0,29.93,SSW,197,3.0,6.0,71,0.00,,,0.00,weatherlink.com 1.10,2013-07-08 02:29:00,
2013-07-07 21:44:00,81.2,71.0,29.93,SW,223,4.0,7.0,70,0.00,,,0.00,weatherlink.com 1.10,2013-07-08 02:44:00,
2013-07-07 21:59:00,81.2,70.0,29.94,SSW,195,3.0,7.0,69,0.00,,,0.00,weatherlink.com 1.10,2013-07-08 02:59:00,
2013-07-07 22:14:00,81.2,70.0,29.94,WSW,238,5.0,7.0,69,0.00,,,0.00,weatherlink.com 1.10,2013-07-08 03:14:00,
2013-07-07 22:29:00,81.1,70.0,29.94,SSW,196,2.0,7.0,69,0.00,,,0.00,weatherlink.com 1.10,2013-07-08 03:29:00,
2013-07-07 22:44:00,80.7,70.0,29.95,South,184,1.0,6.0,70,0.00,,,0.00,weatherlink.com 1.10,2013-07-08 03:44:00,
2013-07-07 22:59:00,80.5,70.0,29.95,SSW,211,2.0,7.0,71,0.00,,,0.00,weatherlink.com 1.10,2013-07-08 03:59:00,
2013-07-07 23:14:00,80.5,70.0,29.96,South,185,3.0,7.0,71,0.00,,,0.00,weatherlink.com 1.10,2013-07-08 04:14:00,
2013-07-07 23:30:00,80.4,71.0,29.96,SW,217,4.0,7.0,72,0.00,,,0.00,weatherlink.com 1.10,2013-07-08 04:30:00,
2013-07-07 23:45:00,80.1,70.0,29.96,SSW,209,2.0,7.0,72,0.00,,,0.00,weatherlink.com 1.10,2013-07-08 04:45:00,